Mermaid Ace — 3FCG3 — position and weather

sailwx.info

Track history (hours):
 
Tides and Currents Weather Stations Pressure Air Temp Water Temp Dewpoint Dewpoint Depression Visibility Wind Speed Wind Dir Waves Ship Positions

Mermaid Ace

Last reported at 2018-Jun-11 09:53 UTC. Time now 2018-Jun-18 11:09 UTC.
Position N 01°29' E 104°33'.

Length 200 m; draft 8.5 m.

Type: Ship. MMSI: 355139000.

Date/timePositionNaut miles runAvg speedWind from/ knotsBaromVisibWave heightAir tempDewpointWater temp
2018-Jun-11 09:53N 01°29' E 104°33'818.1
2018-Jun-11 09:27N 01°24' E 104°27'918.1
2018-Jun-11 08:57N 01°18' E 104°20'817.8
2018-Jun-11 08:30N 01°16' E 104°13'917.4
2018-Jun-11 07:59N 01°15' E 104°04'917.7
2018-Jun-11 07:29N 01°13' E 103°55'815.5
2018-Jun-11 07:00N 01°10' E 103°48'715.2
2018-Jun-11 06:30N 01°05' E 103°43'815.9
2018-Jun-11 06:00N 01°06' E 103°35'918.3
2018-Jun-11 05:30N 01°11' E 103°27'917.6
2018-Jun-11 04:58N 01°17' E 103°20'817.6
2018-Jun-11 04:30N 01°22' E 103°13'917.5
2018-Jun-11 04:00N 01°27' E 103°06'  
Track history (hours):
 
Tides and Currents Weather Stations Pressure Air Temp Water Temp Dewpoint Dewpoint Depression Visibility Wind Speed Wind Dir Waves Ship Positions

Mermaid Ace

Last reported at 2018-Jun-11 09:53 UTC. Time now 2018-Jun-18 11:09 UTC.
Position N 01°29' E 104°33'.

Length 200 m; draft 8.5 m.

Type: Ship. MMSI: 355139000.

Date/timePositionNaut miles runAvg speedWind from/ knotsBaromVisibWave heightAir tempDewpointWater temp
2018-Jun-11 09:53N 01°29' E 104°33'818.1
2018-Jun-11 09:27N 01°24' E 104°27'918.1
2018-Jun-11 08:57N 01°18' E 104°20'817.8
2018-Jun-11 08:30N 01°16' E 104°13'917.4
2018-Jun-11 07:59N 01°15' E 104°04'917.7
2018-Jun-11 07:29N 01°13' E 103°55'815.5
2018-Jun-11 07:00N 01°10' E 103°48'715.2
2018-Jun-11 06:30N 01°05' E 103°43'815.9
2018-Jun-11 06:00N 01°06' E 103°35'918.3
2018-Jun-11 05:30N 01°11' E 103°27'917.6
2018-Jun-11 04:58N 01°17' E 103°20'817.6
2018-Jun-11 04:30N 01°22' E 103°13'917.5
2018-Jun-11 04:00N 01°27' E 103°06'  

Dump ship's entire track history